createdAt,value
2018-03-25T00:01:12.306Z,0.32
2018-03-25T00:03:42.417Z,0.28
2018-03-25T00:06:12.432Z,0.20
2018-03-25T00:08:57.629Z,0.13
2018-03-25T00:11:30.028Z,0.09
2018-03-25T00:13:59.976Z,0.02
2018-03-25T00:16:29.923Z,-0.02
2018-03-25T00:18:59.830Z,-0.05
2018-03-25T00:21:29.687Z,-0.10
2018-03-25T00:23:59.551Z,-0.16
2018-03-25T00:26:29.489Z,-0.21
2018-03-25T00:28:59.342Z,-0.22
2018-03-25T00:31:29.216Z,-0.26
2018-03-25T00:33:59.137Z,-0.27
2018-03-25T00:36:29.038Z,-0.30
2018-03-25T00:38:59.008Z,-0.34
2018-03-25T00:41:28.924Z,-0.38
2018-03-25T00:43:58.869Z,-0.43
2018-03-25T00:46:28.767Z,-0.45
2018-03-25T00:48:58.880Z,-0.53
2018-03-25T00:51:28.836Z,-0.55
2018-03-25T00:53:58.750Z,-0.60
2018-03-25T00:56:28.653Z,-0.59
2018-03-25T00:58:58.565Z,-0.64
2018-03-25T01:01:28.472Z,-0.69
2018-03-25T01:03:58.423Z,-0.72
2018-03-25T01:06:28.332Z,-0.76
2018-03-25T01:08:58.302Z,-0.81
2018-03-25T01:11:28.189Z,-0.84
2018-03-25T01:13:58.081Z,-0.89
2018-03-25T01:16:28.001Z,-0.88
2018-03-25T01:18:57.650Z,-0.93
2018-03-25T01:21:27.517Z,-0.97
2018-03-25T01:23:57.509Z,-1.02
2018-03-25T01:26:27.141Z,-1.05
2018-03-25T01:28:57.085Z,-0.97
2018-03-25T01:31:26.414Z,-1.05
2018-03-25T01:33:57.276Z,-1.10
2018-03-25T01:36:27.196Z,-0.99
2018-03-25T01:38:57.037Z,-0.98
2018-03-25T01:41:26.891Z,-1.01
2018-03-25T01:43:56.495Z,-1.02
2018-03-25T01:46:26.350Z,-1.18
2018-03-25T01:48:56.294Z,-1.14
2018-03-25T01:51:26.357Z,-1.26
2018-03-25T01:53:56.212Z,-1.35
2018-03-25T01:56:26.127Z,-1.40
2018-03-25T01:58:56.037Z,-1.40
2018-03-25T02:01:25.953Z,-1.41
2018-03-25T02:03:55.871Z,-1.45
2018-03-25T02:06:25.784Z,-1.53
2018-03-25T02:08:55.666Z,-1.64
2018-03-25T02:11:25.599Z,-1.71
2018-03-25T02:13:55.509Z,-1.79
2018-03-25T02:16:25.530Z,-1.71
2018-03-25T02:18:55.432Z,-1.74
2018-03-25T02:21:25.347Z,-1.63
2018-03-25T02:23:54.740Z,-1.64
2018-03-25T02:26:24.694Z,-1.64
2018-03-25T02:28:58.318Z,-1.79
2018-03-25T02:31:28.181Z,-1.80
2018-03-25T02:33:58.182Z,-1.94
2018-03-25T02:36:28.108Z,-2.06
2018-03-25T02:38:58.714Z,-2.14
2018-03-25T02:41:28.641Z,-2.23
2018-03-25T02:43:58.817Z,-2.25
2018-03-25T02:46:28.724Z,-2.30
2018-03-25T02:48:58.620Z,-2.38
2018-03-25T02:51:28.597Z,-2.43
2018-03-25T02:53:58.505Z,-2.38
2018-03-25T02:56:28.421Z,-2.46
2018-03-25T02:58:58.298Z,-2.45
2018-03-25T03:01:28.177Z,-2.51
2018-03-25T03:03:58.071Z,-2.57
2018-03-25T03:06:28.000Z,-2.59
2018-03-25T03:08:57.980Z,-2.58
2018-03-25T03:11:27.896Z,-2.61
2018-03-25T03:13:57.881Z,-2.54
2018-03-25T03:16:27.774Z,-2.58
2018-03-25T03:18:57.768Z,-2.64
2018-03-25T03:21:27.603Z,-2.68
2018-03-25T03:23:57.467Z,-2.72
2018-03-25T03:26:27.379Z,-2.51
2018-03-25T03:28:57.393Z,-2.52
2018-03-25T03:31:26.974Z,-2.48
2018-03-25T03:33:56.821Z,-2.46
2018-03-25T03:36:26.796Z,-2.28
2018-03-25T03:38:56.674Z,-2.08
2018-03-25T03:41:26.381Z,-1.64
2018-03-25T03:43:56.323Z,-1.28
2018-03-25T03:46:26.216Z,-0.88
2018-03-25T03:48:56.138Z,-0.52
2018-03-25T03:51:26.061Z,-0.56
2018-03-25T03:53:55.948Z,-0.42
2018-03-25T03:56:25.885Z,-0.07
2018-03-25T03:58:55.745Z,-0.25
2018-03-25T04:01:25.587Z,-0.29
2018-03-25T04:03:55.836Z,-0.20
2018-03-25T04:06:25.701Z,-0.15
2018-03-25T04:08:55.654Z,-0.27
2018-03-25T04:11:25.574Z,-0.41
2018-03-25T04:13:55.545Z,-0.16
2018-03-25T04:16:25.475Z,-0.15
2018-03-25T04:18:55.395Z,-0.07
2018-03-25T04:21:25.339Z,-0.01
2018-03-25T04:23:55.163Z,0.10
2018-03-25T04:26:25.158Z,0.04
2018-03-25T04:28:55.366Z,0.11
2018-03-25T04:31:25.689Z,0.01
2018-03-25T04:33:55.568Z,-0.05
2018-03-25T04:36:25.397Z,-0.02
2018-03-25T04:38:55.245Z,-0.06
2018-03-25T04:41:25.208Z,-0.17
2018-03-25T04:43:55.094Z,-0.39
2018-03-25T04:46:24.947Z,-0.49
2018-03-25T04:48:54.873Z,-0.65
2018-03-25T04:51:25.066Z,-0.86
2018-03-25T04:53:54.718Z,-0.84
2018-03-25T04:56:24.550Z,-0.89
2018-03-25T04:58:54.407Z,-0.91
2018-03-25T05:01:24.306Z,-0.84
2018-03-25T05:03:54.159Z,-0.78
2018-03-25T05:06:24.017Z,-0.65
2018-03-25T05:08:54.130Z,-0.60
2018-03-25T05:11:24.065Z,-0.71
2018-03-25T05:13:53.987Z,-0.81
2018-03-25T05:16:23.928Z,-0.88
2018-03-25T05:21:54.383Z,-1.17
2018-03-25T05:24:24.237Z,-1.22
2018-03-25T05:26:54.120Z,-1.22
2018-03-25T05:29:23.967Z,-1.19
2018-03-25T05:31:53.863Z,-1.07
2018-03-25T05:34:23.755Z,-1.01
2018-03-25T05:36:53.704Z,-0.86
2018-03-25T05:39:23.636Z,-0.71
2018-03-25T05:41:53.933Z,-0.54
2018-03-25T05:44:23.843Z,-0.38
2018-03-25T05:46:53.813Z,-0.12
2018-03-25T05:49:23.661Z,0.21
2018-03-25T05:51:53.585Z,0.51
2018-03-25T05:54:23.510Z,1.26
2018-03-25T05:56:53.447Z,2.27
2018-03-25T05:59:23.332Z,3.36
2018-03-25T06:01:53.261Z,4.40
2018-03-25T06:04:23.119Z,5.27
2018-03-25T06:06:53.042Z,5.53
2018-03-25T06:09:22.900Z,6.02
2018-03-25T06:11:53.001Z,6.77
2018-03-25T06:14:22.935Z,7.29
2018-03-25T06:16:52.875Z,7.38
2018-03-25T06:19:22.775Z,7.44
2018-03-25T06:21:52.692Z,9.02
2018-03-25T06:24:22.711Z,8.91
2018-03-25T06:26:52.722Z,9.17
2018-03-25T06:29:22.590Z,9.39
2018-03-25T06:31:52.558Z,10.50
2018-03-25T06:34:22.612Z,10.44
2018-03-25T06:36:52.725Z,10.46
2018-03-25T06:39:22.585Z,10.55
2018-03-25T06:41:52.554Z,11.03
2018-03-25T06:44:22.991Z,10.91
2018-03-25T06:46:52.654Z,10.42
2018-03-25T06:49:22.708Z,11.46
2018-03-25T06:51:52.453Z,12.21
2018-03-25T06:54:26.930Z,11.87
2018-03-25T06:56:56.868Z,12.43
2018-03-25T06:59:26.482Z,12.23
2018-03-25T07:01:56.099Z,12.40
2018-03-25T07:04:26.013Z,13.93
2018-03-25T07:06:55.593Z,14.31
2018-03-25T07:09:25.997Z,13.55
2018-03-25T07:11:55.714Z,13.91
2018-03-25T07:14:25.356Z,13.71
2018-03-25T07:16:55.115Z,13.63
2018-03-25T07:19:24.703Z,13.56
2018-03-25T07:21:54.258Z,14.32
2018-03-25T07:24:23.975Z,13.26
2018-03-25T07:26:53.646Z,14.76
2018-03-25T07:29:23.342Z,12.06
2018-03-25T07:31:52.884Z,14.74
2018-03-25T07:34:22.514Z,13.48
2018-03-25T07:36:52.069Z,14.04
2018-03-25T07:39:21.607Z,13.05
2018-03-25T07:41:51.405Z,11.72
2018-03-25T07:44:21.018Z,13.92
2018-03-25T07:46:50.553Z,16.04
2018-03-25T07:49:20.099Z,12.43
2018-03-25T07:51:49.894Z,14.54
2018-03-25T07:54:19.450Z,13.73
2018-03-25T07:56:48.968Z,14.23
2018-03-25T07:59:18.493Z,15.01
2018-03-25T08:01:47.997Z,15.08
2018-03-25T08:04:17.546Z,15.98
2018-03-25T08:06:47.052Z,15.58
2018-03-25T08:09:16.597Z,16.93
2018-03-25T08:11:46.116Z,17.64
2018-03-25T08:14:15.711Z,18.34
2018-03-25T08:16:45.216Z,17.52
2018-03-25T08:19:14.871Z,18.92
2018-03-25T08:21:44.847Z,19.18
2018-03-25T08:24:14.364Z,18.96
2018-03-25T08:26:43.873Z,16.29
2018-03-25T08:29:13.403Z,16.73
2018-03-25T08:31:42.947Z,16.20
2018-03-25T08:34:12.169Z,18.68
2018-03-25T08:36:41.799Z,20.02
2018-03-25T08:39:11.308Z,17.23
2018-03-25T08:41:40.837Z,17.94
2018-03-25T08:44:10.483Z,20.70
2018-03-25T08:46:39.986Z,16.50
2018-03-25T08:49:09.514Z,14.82
2018-03-25T08:51:39.075Z,17.34
2018-03-25T08:54:09.612Z,20.14
2018-03-25T08:56:39.133Z,19.08
2018-03-25T08:59:08.644Z,19.83
2018-03-25T09:01:38.150Z,23.04
2018-03-25T09:04:07.782Z,22.78
2018-03-25T09:06:37.296Z,22.40
2018-03-25T09:09:06.487Z,22.86
2018-03-25T09:11:35.994Z,22.59
2018-03-25T09:14:05.199Z,19.70
2018-03-25T09:16:34.804Z,20.93
2018-03-25T09:19:04.418Z,17.29
2018-03-25T09:21:33.922Z,19.39
2018-03-25T09:24:03.452Z,20.59
2018-03-25T09:26:32.963Z,23.05
2018-03-25T09:29:02.660Z,22.11
2018-03-25T09:31:32.175Z,22.48
2018-03-25T09:34:01.702Z,20.90
2018-03-25T09:36:31.242Z,23.19
2018-03-25T09:39:00.771Z,23.00
2018-03-25T09:41:30.270Z,20.86
2018-03-25T09:43:59.780Z,19.44
2018-03-25T09:46:29.310Z,22.27
2018-03-25T09:48:58.817Z,21.41
2018-03-25T09:51:28.328Z,23.81
2018-03-25T09:53:57.860Z,23.13
2018-03-25T09:56:27.384Z,21.57
2018-03-25T09:58:56.916Z,16.04
2018-03-25T10:01:45.999Z,21.04
2018-03-25T10:04:15.516Z,24.47
2018-03-25T10:06:45.033Z,25.25
2018-03-25T10:09:14.542Z,24.82
2018-03-25T10:11:44.056Z,25.24
2018-03-25T10:14:14.673Z,25.78
2018-03-25T10:16:44.317Z,25.63
2018-03-25T10:19:14.077Z,26.13
2018-03-25T10:21:43.683Z,27.68
2018-03-25T10:24:14.090Z,25.37
2018-03-25T10:26:45.300Z,28.40
2018-03-25T10:29:14.805Z,27.57
2018-03-25T10:31:44.333Z,28.24
2018-03-25T10:34:13.853Z,26.82
2018-03-25T10:36:43.386Z,26.50
2018-03-25T10:39:12.893Z,26.70
2018-03-25T10:41:42.452Z,27.07
2018-03-25T10:44:11.988Z,26.53
2018-03-25T10:46:41.556Z,26.71
2018-03-25T10:49:11.566Z,29.96
2018-03-25T10:51:41.234Z,29.29
2018-03-25T10:54:10.744Z,27.68
2018-03-25T10:56:40.399Z,27.96
2018-03-25T10:59:09.934Z,26.57
2018-03-25T11:01:39.463Z,25.20
2018-03-25T11:04:08.964Z,25.94
2018-03-25T11:06:38.485Z,27.45
2018-03-25T11:09:08.057Z,27.64
2018-03-25T11:11:37.757Z,32.35
2018-03-25T11:14:07.301Z,30.58
2018-03-25T11:16:36.812Z,30.12
2018-03-25T11:19:06.528Z,28.90
2018-03-25T11:21:36.063Z,29.49
2018-03-25T11:24:05.421Z,26.74
2018-03-25T11:26:34.955Z,28.70
2018-03-25T11:29:04.550Z,27.15
2018-03-25T11:31:34.056Z,27.91
2018-03-25T11:34:03.578Z,26.92
2018-03-25T11:36:33.110Z,25.01
2018-03-25T11:39:02.616Z,25.37
2018-03-25T11:41:31.885Z,28.03
2018-03-25T11:44:01.151Z,28.78
2018-03-25T11:46:30.669Z,30.84
2018-03-25T11:49:00.184Z,28.90
2018-03-25T11:51:29.714Z,30.46
2018-03-25T11:53:59.216Z,31.90
2018-03-25T11:56:28.719Z,32.00
2018-03-25T11:58:58.237Z,31.34
2018-03-25T12:01:27.796Z,28.62
2018-03-25T12:03:57.317Z,28.32
2018-03-25T12:06:26.828Z,28.17
2018-03-25T12:08:56.377Z,30.50
2018-03-25T12:11:25.909Z,32.71
2018-03-25T12:13:55.413Z,30.92
2018-03-25T12:16:24.990Z,33.72
2018-03-25T12:18:54.707Z,33.03
2018-03-25T12:21:24.210Z,26.73
2018-03-25T12:23:53.744Z,28.36
2018-03-25T12:26:23.244Z,28.73
2018-03-25T12:28:56.645Z,29.40
2018-03-25T12:31:26.946Z,26.57
2018-03-25T12:33:56.480Z,25.19
2018-03-25T12:36:25.984Z,25.93
2018-03-25T12:38:55.499Z,28.20
2018-03-25T12:41:25.044Z,30.39
2018-03-25T12:43:54.562Z,30.65
2018-03-25T12:46:24.081Z,30.68
2018-03-25T12:48:53.690Z,31.95
2018-03-25T12:51:23.303Z,32.66
2018-03-25T12:53:52.833Z,31.20
2018-03-25T12:56:22.353Z,29.17
2018-03-25T12:58:51.911Z,28.61
2018-03-25T13:01:21.565Z,30.58
2018-03-25T13:03:51.133Z,29.25
2018-03-25T13:06:20.655Z,28.81
2018-03-25T13:08:51.044Z,28.90
2018-03-25T13:11:20.590Z,28.35
2018-03-25T13:13:50.090Z,27.80
2018-03-25T13:16:19.637Z,28.52
2018-03-25T13:18:49.153Z,30.07
2018-03-25T13:21:18.700Z,32.29
2018-03-25T13:23:48.214Z,33.10
2018-03-25T13:26:17.732Z,30.15
2018-03-25T13:28:47.234Z,30.43
2018-03-25T13:31:16.803Z,29.97
2018-03-25T13:33:46.348Z,30.05
2018-03-25T13:36:15.904Z,28.35
2018-03-25T13:38:45.440Z,29.41
2018-03-25T13:41:14.994Z,29.15
2018-03-25T13:43:44.507Z,26.14
2018-03-25T13:46:14.021Z,29.64
2018-03-25T13:48:43.587Z,25.59
2018-03-25T13:51:13.117Z,29.88
2018-03-25T13:53:42.609Z,30.01
2018-03-25T13:56:12.127Z,30.62
2018-03-25T13:58:41.654Z,28.30
2018-03-25T14:01:11.607Z,30.07
2018-03-25T14:03:41.151Z,31.46
2018-03-25T14:06:10.679Z,31.60
2018-03-25T14:08:40.676Z,30.91
2018-03-25T14:11:09.840Z,28.09
2018-03-25T14:13:39.463Z,22.67
2018-03-25T14:16:08.970Z,28.05
2018-03-25T14:18:38.486Z,29.26
2018-03-25T14:21:08.011Z,27.87
2018-03-25T14:23:37.530Z,26.52
2018-03-25T14:26:07.055Z,26.01
2018-03-25T14:28:36.600Z,25.09
2018-03-25T14:31:06.119Z,21.43
2018-03-25T14:33:35.641Z,19.16
2018-03-25T14:36:05.152Z,16.64
2018-03-25T14:38:34.771Z,16.07
2018-03-25T14:41:04.311Z,14.94
2018-03-25T14:43:33.845Z,14.17
2018-03-25T14:46:03.361Z,13.90
2018-03-25T14:48:32.918Z,14.46
2018-03-25T14:51:02.468Z,14.16
2018-03-25T14:53:32.000Z,13.78
2018-03-25T14:56:01.698Z,14.62
2018-03-25T14:58:31.302Z,14.35
2018-03-25T15:01:00.462Z,14.02
2018-03-25T15:03:30.573Z,14.05
2018-03-25T15:06:00.272Z,13.76
2018-03-25T15:08:29.785Z,13.60
2018-03-25T15:10:59.392Z,14.02
2018-03-25T15:13:29.193Z,14.31
2018-03-25T15:15:59.005Z,14.26
2018-03-25T15:18:28.822Z,13.88
2018-03-25T15:20:58.175Z,13.93
2018-03-25T15:23:28.124Z,13.66
2018-03-25T15:25:57.717Z,13.93
2018-03-25T15:28:27.433Z,14.04
2018-03-25T15:30:56.969Z,13.65
2018-03-25T15:33:26.520Z,13.73
2018-03-25T15:35:56.054Z,13.91
2018-03-25T15:38:25.560Z,13.55
2018-03-25T15:40:55.092Z,13.45
2018-03-25T15:43:24.947Z,13.32
2018-03-25T15:45:55.361Z,13.07
2018-03-25T15:48:25.233Z,12.82
2018-03-25T15:50:55.063Z,12.59
2018-03-25T15:53:25.039Z,12.72
2018-03-25T15:55:54.924Z,12.74
2018-03-25T15:58:24.774Z,13.03
2018-03-25T16:00:54.575Z,13.10
2018-03-25T16:03:24.095Z,13.07
2018-03-25T16:05:53.693Z,12.95
2018-03-25T16:08:23.241Z,12.92
2018-03-25T16:10:54.341Z,12.86
2018-03-25T16:13:24.829Z,12.75
2018-03-25T16:15:54.796Z,12.57
2018-03-25T16:18:24.590Z,12.37
2018-03-25T16:20:54.415Z,12.39
2018-03-25T16:23:24.232Z,12.18
2018-03-25T16:25:55.415Z,12.05
2018-03-25T16:28:29.795Z,11.97
2018-03-25T16:30:59.666Z,11.87
2018-03-25T16:33:29.501Z,11.67
2018-03-25T16:35:59.330Z,11.59
2018-03-25T16:38:29.138Z,11.48
2018-03-25T16:40:58.946Z,11.41
2018-03-25T16:43:28.997Z,11.30
2018-03-25T16:45:58.877Z,11.18
2018-03-25T16:48:35.649Z,11.10
2018-03-25T16:51:05.563Z,11.13
2018-03-25T16:53:35.357Z,11.04
2018-03-25T16:56:05.165Z,10.93
2018-03-25T16:58:35.108Z,10.89
2018-03-25T17:01:04.980Z,10.77
2018-03-25T17:03:34.784Z,10.73
2018-03-25T17:06:04.054Z,10.70
2018-03-25T17:08:33.897Z,10.56
2018-03-25T17:11:03.673Z,10.43
2018-03-25T17:13:33.582Z,10.23
2018-03-25T17:16:03.400Z,10.10
2018-03-25T17:18:33.246Z,10.03
2018-03-25T17:21:02.769Z,9.86
2018-03-25T17:23:32.556Z,9.73
2018-03-25T17:26:02.443Z,9.57
2018-03-25T17:28:32.221Z,9.45
2018-03-25T17:31:02.015Z,9.39
2018-03-25T17:33:31.818Z,9.23
2018-03-25T17:36:01.617Z,9.11
2018-03-25T17:38:31.422Z,9.00
2018-03-25T17:41:01.219Z,8.97
2018-03-25T17:43:31.019Z,8.91
2018-03-25T17:46:00.839Z,8.75
2018-03-25T17:48:30.872Z,8.61
2018-03-25T17:51:00.749Z,8.56
2018-03-25T17:53:30.530Z,8.52
2018-03-25T17:56:00.361Z,8.43
2018-03-25T17:58:30.179Z,8.34
2018-03-25T18:01:00.006Z,8.28
2018-03-25T18:03:29.824Z,8.12
2018-03-25T18:05:59.615Z,7.92
2018-03-25T18:08:29.435Z,7.93
2018-03-25T18:10:59.222Z,7.80
2018-03-25T18:13:29.026Z,7.58
2018-03-25T18:15:58.872Z,7.30
2018-03-25T18:18:28.783Z,7.14
2018-03-25T18:20:58.563Z,7.27
2018-03-25T18:23:28.372Z,7.10
2018-03-25T18:25:58.820Z,7.25
2018-03-25T18:28:28.836Z,7.04
2018-03-25T18:30:58.732Z,7.06
2018-03-25T18:33:28.562Z,7.15
2018-03-25T18:35:58.366Z,7.10
2018-03-25T18:38:28.141Z,6.88
2018-03-25T18:40:58.080Z,6.96
2018-03-25T18:43:27.942Z,6.99
2018-03-25T18:45:57.745Z,6.97
2018-03-25T18:48:27.551Z,6.99
2018-03-25T18:50:57.344Z,6.86
2018-03-25T18:53:27.151Z,6.82
2018-03-25T18:55:56.952Z,6.76
2018-03-25T18:58:26.748Z,6.70
2018-03-25T19:00:56.559Z,6.70
2018-03-25T19:03:26.644Z,6.60
2018-03-25T19:06:00.527Z,6.46
2018-03-25T19:08:30.326Z,6.28
2018-03-25T19:11:00.141Z,6.46
2018-03-25T19:13:29.952Z,6.50
2018-03-25T19:15:59.740Z,6.38
2018-03-25T19:18:29.556Z,6.23
2018-03-25T19:20:59.412Z,6.29
2018-03-25T19:23:29.232Z,6.28
2018-03-25T19:25:59.037Z,6.26
2018-03-25T19:28:28.581Z,6.21
2018-03-25T19:30:58.428Z,6.14
2018-03-25T19:33:28.248Z,6.08
2018-03-25T19:35:58.072Z,5.87
2018-03-25T19:38:27.854Z,5.87
2018-03-25T19:40:57.659Z,5.73
2018-03-25T19:43:27.299Z,5.69
2018-03-25T19:45:57.179Z,5.71
2018-03-25T19:48:26.964Z,5.56
2018-03-25T19:50:56.939Z,5.55
2018-03-25T19:53:26.827Z,5.28
2018-03-25T19:55:59.046Z,5.22
2018-03-25T19:58:28.929Z,5.04
2018-03-25T20:00:58.864Z,4.72
2018-03-25T20:03:29.083Z,4.46
2018-03-25T20:05:59.783Z,4.23
2018-03-25T20:08:30.049Z,4.09
2018-03-25T20:11:00.455Z,4.04
2018-03-25T20:13:30.315Z,3.77
2018-03-25T20:16:00.195Z,3.60
2018-03-25T20:18:30.049Z,3.43
2018-03-25T20:20:59.944Z,3.26
2018-03-25T20:23:29.775Z,3.05
2018-03-25T20:25:59.671Z,3.09
2018-03-25T20:28:31.928Z,3.05
2018-03-25T20:31:02.037Z,2.95
2018-03-25T20:33:31.856Z,3.05
2018-03-25T20:36:01.788Z,3.29
2018-03-25T20:38:31.870Z,3.52
2018-03-25T20:41:01.698Z,3.48
2018-03-25T20:43:31.520Z,3.29
2018-03-25T20:46:01.377Z,3.13
2018-03-25T20:48:32.033Z,2.98
2018-03-25T20:51:01.841Z,2.75
2018-03-25T20:53:31.684Z,2.58
2018-03-25T20:56:01.590Z,2.43
2018-03-25T20:58:31.832Z,2.26
2018-03-25T21:01:01.715Z,2.20
2018-03-25T21:03:31.546Z,2.22
2018-03-25T21:06:01.390Z,2.03
2018-03-25T21:08:31.238Z,2.00
2018-03-25T21:11:01.090Z,1.96
2018-03-25T21:13:30.911Z,1.87
2018-03-25T21:16:00.941Z,1.77
2018-03-25T21:18:30.840Z,1.66
2018-03-25T21:21:00.832Z,1.56
2018-03-25T21:23:31.012Z,1.48
2018-03-25T21:26:00.857Z,1.41
2018-03-25T21:28:30.729Z,1.39
2018-03-25T21:31:01.497Z,1.38
2018-03-25T21:33:32.365Z,1.30
2018-03-25T21:36:02.586Z,1.25
2018-03-25T21:38:32.566Z,1.23
2018-03-25T21:41:02.597Z,1.68
2018-03-25T21:43:32.623Z,1.65
2018-03-25T21:46:02.471Z,1.57
2018-03-25T21:48:32.151Z,1.56
2018-03-25T21:51:02.000Z,1.47
2018-03-25T21:53:32.005Z,1.37
2018-03-25T21:56:01.891Z,1.31
2018-03-25T21:58:31.839Z,1.38
2018-03-25T22:01:01.695Z,1.37
2018-03-25T22:03:31.652Z,1.44
2018-03-25T22:06:01.534Z,1.45
2018-03-25T22:08:31.391Z,1.36
2018-03-25T22:11:01.398Z,1.37
2018-03-25T22:13:31.213Z,1.41
2018-03-25T22:16:01.055Z,1.40
2018-03-25T22:18:31.322Z,1.31
2018-03-25T22:21:00.994Z,1.16
2018-03-25T22:23:31.874Z,1.13
2018-03-25T22:26:01.868Z,1.27
2018-03-25T22:28:31.834Z,1.25
2018-03-25T22:31:02.794Z,1.10
2018-03-25T22:33:32.729Z,1.03
2018-03-25T22:36:02.713Z,0.96
2018-03-25T22:38:32.769Z,0.87
2018-03-25T22:41:03.382Z,0.79
2018-03-25T22:43:33.412Z,0.84
2018-03-25T22:46:05.406Z,0.77
2018-03-25T22:48:36.407Z,1.31
2018-03-25T22:51:06.434Z,1.08
2018-03-25T22:53:36.524Z,1.13
2018-03-25T22:56:06.620Z,1.25
2018-03-25T22:58:36.541Z,1.31
2018-03-25T23:01:05.889Z,1.05
2018-03-25T23:03:35.748Z,1.02
2018-03-25T23:06:05.296Z,0.87
2018-03-25T23:08:35.137Z,0.73
2018-03-25T23:11:05.179Z,0.64
2018-03-25T23:13:35.064Z,0.53
2018-03-25T23:16:04.901Z,0.45
2018-03-25T23:18:34.584Z,0.32
2018-03-25T23:21:04.923Z,0.20
2018-03-25T23:23:34.812Z,0.11
2018-03-25T23:26:04.707Z,0.00
2018-03-25T23:28:34.590Z,-0.11
2018-03-25T23:31:04.440Z,-0.20
2018-03-25T23:33:34.295Z,-0.27
2018-03-25T23:36:03.982Z,-0.34
2018-03-25T23:38:33.829Z,-0.43
2018-03-25T23:41:03.661Z,-0.35
2018-03-25T23:43:33.513Z,-0.35
2018-03-25T23:46:03.427Z,-0.38
2018-03-25T23:48:33.317Z,-0.41
2018-03-25T23:51:03.183Z,-0.47
2018-03-25T23:53:33.087Z,-0.54
2018-03-25T23:56:02.957Z,-0.57
2018-03-25T23:58:32.810Z,-0.54
